createdAt,value
2019-03-06T00:02:25.209Z,4.97
2019-03-06T00:04:55.457Z,5.27
2019-03-06T00:07:25.744Z,5.10
2019-03-06T00:09:56.022Z,5.50
2019-03-06T00:12:26.484Z,5.27
2019-03-06T00:14:56.736Z,4.30
2019-03-06T00:17:26.915Z,6.03
2019-03-06T00:19:57.124Z,4.83
2019-03-06T00:22:27.381Z,5.73
2019-03-06T00:24:57.583Z,4.73
2019-03-06T00:27:27.777Z,7.23
2019-03-06T00:29:58.026Z,6.03
2019-03-06T00:32:28.284Z,6.43
2019-03-06T00:35:00.412Z,8.43
2019-03-06T00:37:30.588Z,8.03
2019-03-06T00:40:07.174Z,5.40
2019-03-06T00:42:44.792Z,5.20
2019-03-06T00:45:15.098Z,8.23
2019-03-06T00:47:45.315Z,6.13
2019-03-06T00:50:15.509Z,6.00
2019-03-06T00:52:45.764Z,6.17
2019-03-06T00:55:16.188Z,7.53
2019-03-06T00:57:46.377Z,5.70
2019-03-06T01:00:17.418Z,4.13
2019-03-06T01:02:47.733Z,6.77
2019-03-06T01:05:18.409Z,5.77
2019-03-06T01:07:48.598Z,6.23
2019-03-06T01:10:18.780Z,4.70
2019-03-06T01:12:49.028Z,7.23
2019-03-06T01:15:19.398Z,6.43
2019-03-06T01:17:49.779Z,4.73
2019-03-06T01:20:20.013Z,6.20
2019-03-06T01:22:50.221Z,6.47
2019-03-06T01:25:20.593Z,4.53
2019-03-06T01:27:50.861Z,7.93
2019-03-06T01:30:21.133Z,6.47
2019-03-06T01:32:55.051Z,9.10
2019-03-06T01:36:02.471Z,6.10
2019-03-06T01:39:00.783Z,5.20
2019-03-06T01:42:05.047Z,5.47
2019-03-06T01:44:44.895Z,7.40
2019-03-06T01:47:15.157Z,7.67
2019-03-06T01:49:45.362Z,6.27
2019-03-06T01:52:15.543Z,8.47
2019-03-06T01:54:45.740Z,6.60
2019-03-06T01:57:16.264Z,8.47
2019-03-06T01:59:46.470Z,8.13
2019-03-06T02:02:16.735Z,7.23
2019-03-06T02:04:46.962Z,7.73
2019-03-06T02:07:17.348Z,6.73
2019-03-06T02:09:47.659Z,7.53
2019-03-06T02:12:17.856Z,7.30
2019-03-06T02:14:48.146Z,7.30
2019-03-06T02:17:18.392Z,8.37
2019-03-06T02:19:48.665Z,7.93
2019-03-06T02:22:18.927Z,7.80
2019-03-06T02:24:49.225Z,7.47
2019-03-06T02:27:19.563Z,9.53
2019-03-06T02:29:49.824Z,7.27
2019-03-06T02:32:19.999Z,10.00
2019-03-06T02:34:50.199Z,9.07
2019-03-06T02:37:20.434Z,8.83
2019-03-06T02:39:50.623Z,8.37
2019-03-06T02:42:20.800Z,6.80
2019-03-06T02:44:50.977Z,6.13
2019-03-06T02:47:21.158Z,7.53
2019-03-06T02:49:51.569Z,8.00
2019-03-06T02:52:21.804Z,6.97
2019-03-06T02:54:52.015Z,8.27
2019-03-06T02:57:22.197Z,11.90
2019-03-06T02:59:59.329Z,13.27
2019-03-06T03:03:03.715Z,7.50
2019-03-06T03:05:38.871Z,9.00
2019-03-06T03:08:09.205Z,7.60
2019-03-06T03:10:39.388Z,6.97
2019-03-06T03:13:09.546Z,8.63
2019-03-06T03:15:39.733Z,7.97
2019-03-06T03:18:09.901Z,7.30
2019-03-06T03:20:40.151Z,8.47
2019-03-06T03:23:10.403Z,10.97
2019-03-06T03:25:40.599Z,7.23
2019-03-06T03:28:10.802Z,8.73
2019-03-06T03:30:41.098Z,8.37
2019-03-06T03:33:11.346Z,8.90
2019-03-06T03:35:41.800Z,7.77
2019-03-06T03:38:11.957Z,8.50
2019-03-06T03:40:42.168Z,10.33
2019-03-06T03:43:12.345Z,7.47
2019-03-06T03:45:42.529Z,7.70
2019-03-06T03:48:12.949Z,7.33
2019-03-06T03:50:43.164Z,7.53
2019-03-06T03:53:13.351Z,7.93
2019-03-06T03:55:43.533Z,8.77
2019-03-06T03:58:13.792Z,7.67
2019-03-06T04:00:44.076Z,7.47
2019-03-06T04:03:14.437Z,8.73
2019-03-06T04:05:44.629Z,10.33
2019-03-06T04:08:14.891Z,8.00
2019-03-06T04:10:45.153Z,9.73
2019-03-06T04:13:15.402Z,9.57
2019-03-06T04:15:45.684Z,11.40
2019-03-06T04:18:15.861Z,10.23
2019-03-06T04:20:46.068Z,9.37
2019-03-06T04:23:16.304Z,11.07
2019-03-06T04:25:46.587Z,8.33
2019-03-06T04:28:16.864Z,8.13
2019-03-06T04:30:47.122Z,8.03
2019-03-06T04:33:17.381Z,7.67
2019-03-06T04:35:47.765Z,8.53
2019-03-06T04:38:17.942Z,11.03
2019-03-06T04:40:48.126Z,9.27
2019-03-06T04:43:18.320Z,9.13
2019-03-06T04:45:48.508Z,9.97
2019-03-06T04:48:18.676Z,9.23
2019-03-06T04:50:48.941Z,14.83
2019-03-06T04:53:19.192Z,11.87
2019-03-06T04:55:49.430Z,11.80
2019-03-06T04:58:19.628Z,12.43
2019-03-06T05:00:49.850Z,9.17
2019-03-06T05:03:20.053Z,15.00
2019-03-06T05:05:50.316Z,13.13
2019-03-06T05:08:20.681Z,15.47
2019-03-06T05:10:51.038Z,14.77
2019-03-06T05:13:21.218Z,9.77
2019-03-06T05:15:51.422Z,10.07
2019-03-06T05:18:35.120Z,12.07
2019-03-06T05:21:05.308Z,11.37
2019-03-06T05:23:35.515Z,10.40
2019-03-06T05:26:05.711Z,11.37
2019-03-06T05:28:35.904Z,11.00
2019-03-06T05:31:06.168Z,12.90
2019-03-06T05:33:36.367Z,11.47
2019-03-06T05:37:15.048Z,8.13
2019-03-06T05:39:54.312Z,8.33
2019-03-06T05:42:24.837Z,10.90
2019-03-06T05:44:55.126Z,9.10
2019-03-06T05:47:25.354Z,9.30
2019-03-06T05:49:55.566Z,10.07
2019-03-06T05:52:58.344Z,8.93
2019-03-06T05:55:28.701Z,9.60
2019-03-06T05:57:58.980Z,9.60
2019-03-06T06:00:29.978Z,10.40
2019-03-06T06:03:00.225Z,9.47
2019-03-06T06:05:30.507Z,9.63
2019-03-06T06:08:00.769Z,11.20
2019-03-06T06:10:31.097Z,7.70
2019-03-06T06:13:01.287Z,10.50
2019-03-06T06:15:31.497Z,8.70
2019-03-06T06:18:01.685Z,7.13
2019-03-06T06:20:32.731Z,10.23
2019-03-06T06:23:13.715Z,11.03
2019-03-06T06:25:44.023Z,9.30
2019-03-06T06:28:14.194Z,8.77
2019-03-06T06:30:44.485Z,11.70
2019-03-06T06:33:14.718Z,14.70
2019-03-06T06:35:44.960Z,8.37
2019-03-06T06:38:15.210Z,9.03
2019-03-06T06:40:45.442Z,9.03
2019-03-06T06:43:15.650Z,7.53
2019-03-06T06:45:45.851Z,7.53
2019-03-06T06:48:17.902Z,7.50
2019-03-06T06:51:02.807Z,8.60
2019-03-06T06:54:04.250Z,7.53
2019-03-06T06:57:06.182Z,11.50
2019-03-06T07:00:06.021Z,12.80
2019-03-06T07:02:55.895Z,10.47
2019-03-06T07:05:31.747Z,7.83
2019-03-06T07:08:24.071Z,10.37
2019-03-06T07:11:12.697Z,10.23
2019-03-06T07:13:50.197Z,11.17
2019-03-06T07:16:39.433Z,9.37
2019-03-06T07:19:12.590Z,10.37
2019-03-06T07:22:00.161Z,8.93
2019-03-06T07:24:58.143Z,10.53
2019-03-06T07:27:59.527Z,9.27
2019-03-06T07:30:53.797Z,9.17
2019-03-06T07:33:55.197Z,9.87
2019-03-06T07:36:45.789Z,15.07
2019-03-06T07:39:25.847Z,10.10
2019-03-06T07:42:14.871Z,12.30
2019-03-06T07:45:58.922Z,9.47
2019-03-06T07:48:51.264Z,9.07
2019-03-06T07:51:33.189Z,7.10
2019-03-06T07:54:31.391Z,10.13
2019-03-06T07:57:38.605Z,7.53
2019-03-06T08:00:19.647Z,11.57
2019-03-06T08:03:09.072Z,13.13
2019-03-06T08:05:41.661Z,9.07
2019-03-06T08:08:11.869Z,8.53
2019-03-06T08:10:42.171Z,9.00
2019-03-06T08:13:22.258Z,8.00
2019-03-06T08:16:20.404Z,8.77
2019-03-06T08:19:12.735Z,8.17
2019-03-06T08:22:11.092Z,8.77
2019-03-06T08:24:53.037Z,11.13
2019-03-06T08:27:25.074Z,19.63
2019-03-06T08:29:55.347Z,11.50
2019-03-06T08:32:33.084Z,9.40
2019-03-06T08:35:03.272Z,13.27
2019-03-06T08:37:33.478Z,11.13
2019-03-06T08:40:03.902Z,13.50
2019-03-06T08:42:34.168Z,10.37
2019-03-06T08:45:05.391Z,10.30
2019-03-06T08:47:43.731Z,10.33
2019-03-06T08:50:21.190Z,10.20
2019-03-06T08:53:11.500Z,7.13
2019-03-06T08:55:53.337Z,7.40
2019-03-06T08:58:42.648Z,8.67
2019-03-06T09:01:49.894Z,7.47
2019-03-06T09:04:43.209Z,7.93
2019-03-06T09:07:44.897Z,7.03
2019-03-06T09:10:37.637Z,5.97
2019-03-06T09:13:29.653Z,11.97
2019-03-06T09:16:17.659Z,50.23
2019-03-06T09:19:05.337Z,50.00
2019-03-06T09:21:49.080Z,27.03
2019-03-06T09:24:53.581Z,17.47
2019-03-06T09:27:42.802Z,16.37
2019-03-06T09:30:26.654Z,10.20
2019-03-06T09:33:17.346Z,11.33
2019-03-06T09:36:05.005Z,9.00
2019-03-06T09:38:54.317Z,8.27
2019-03-06T09:41:36.980Z,8.03
2019-03-06T09:44:35.099Z,7.70
2019-03-06T09:47:17.257Z,8.40
2019-03-06T09:50:24.800Z,14.50
2019-03-06T09:53:11.129Z,8.27
2019-03-06T09:55:49.543Z,4.80
2019-03-06T09:58:44.881Z,11.97
2019-03-06T10:01:34.141Z,7.20
2019-03-06T10:04:11.793Z,8.40
2019-03-06T10:06:57.123Z,8.07
2019-03-06T10:09:49.178Z,8.80
2019-03-06T10:12:47.503Z,6.03
2019-03-06T10:15:18.831Z,6.03
2019-03-06T10:17:54.166Z,10.83
2019-03-06T10:20:25.409Z,5.07
2019-03-06T10:22:59.574Z,8.10
2019-03-06T10:25:30.287Z,8.27
2019-03-06T10:28:06.293Z,4.73
2019-03-06T10:30:31.768Z,3.33
2019-03-06T10:33:02.127Z,3.80
2019-03-06T10:35:32.513Z,2.70
2019-03-06T10:38:03.060Z,4.37
2019-03-06T10:40:33.511Z,5.23
2019-03-06T10:43:03.977Z,6.47
2019-03-06T10:45:41.384Z,4.37
2019-03-06T10:48:06.304Z,5.47
2019-03-06T10:50:36.693Z,8.97
2019-03-06T10:53:07.089Z,8.30
2019-03-06T10:55:37.397Z,10.87
2019-03-06T10:58:07.751Z,7.17
2019-03-06T11:00:45.264Z,4.50
2019-03-06T11:03:15.588Z,9.57
2019-03-06T11:05:46.024Z,6.33
2019-03-06T11:08:17.744Z,7.53
2019-03-06T11:10:48.120Z,7.50
2019-03-06T11:13:18.567Z,7.70
2019-03-06T11:15:55.357Z,8.47
2019-03-06T11:18:20.841Z,6.57
2019-03-06T11:20:51.277Z,9.43
2019-03-06T11:23:21.557Z,11.00
2019-03-06T11:26:05.460Z,5.90
2019-03-06T11:28:36.180Z,6.67
2019-03-06T11:31:06.972Z,6.27
2019-03-06T11:33:37.724Z,7.20
2019-03-06T11:36:08.154Z,24.77
2019-03-06T11:38:38.436Z,4.60
2019-03-06T11:41:08.639Z,5.60
2019-03-06T11:43:38.897Z,4.93
2019-03-06T11:46:10.540Z,3.17
2019-03-06T11:48:40.728Z,7.73
2019-03-06T11:51:10.960Z,4.73
2019-03-06T11:53:41.323Z,5.67
2019-03-06T11:56:11.670Z,2.77
2019-03-06T11:58:41.958Z,4.30
2019-03-06T12:01:17.686Z,4.10
2019-03-06T12:03:48.432Z,6.40
2019-03-06T12:06:20.862Z,6.07
2019-03-06T12:08:51.215Z,4.20
2019-03-06T12:11:21.572Z,3.30
2019-03-06T12:13:53.335Z,1.63
2019-03-06T12:16:24.891Z,3.13
2019-03-06T12:18:56.445Z,3.27
2019-03-06T12:21:26.900Z,2.47
2019-03-06T12:23:57.136Z,4.13
2019-03-06T12:26:27.952Z,3.03
2019-03-06T12:28:58.296Z,1.40
2019-03-06T12:31:28.622Z,1.60
2019-03-06T12:33:58.966Z,1.70
2019-03-06T12:36:29.261Z,3.50
2019-03-06T12:38:59.864Z,1.33
2019-03-06T12:41:30.041Z,2.07
2019-03-06T12:44:00.346Z,3.03
2019-03-06T12:46:31.476Z,2.90
2019-03-06T12:49:04.255Z,2.17
2019-03-06T12:51:36.253Z,1.33
2019-03-06T12:54:07.631Z,2.67
2019-03-06T12:56:37.891Z,1.80
2019-03-06T12:59:08.273Z,4.50
2019-03-06T13:01:39.185Z,1.67
2019-03-06T13:04:09.481Z,2.10
2019-03-06T13:06:39.796Z,2.77
2019-03-06T13:09:17.764Z,3.07
2019-03-06T13:11:48.262Z,2.80
2019-03-06T13:14:18.609Z,3.77
2019-03-06T13:16:49.145Z,1.87
2019-03-06T13:19:19.479Z,1.50
2019-03-06T13:21:49.749Z,2.80
2019-03-06T13:24:20.104Z,0.83
2019-03-06T13:26:50.376Z,8.83
2019-03-06T13:29:20.929Z,4.77
2019-03-06T13:31:51.250Z,3.33
2019-03-06T13:34:50.112Z,4.10
2019-03-06T13:37:12.450Z,1.33
2019-03-06T13:39:42.814Z,1.43
2019-03-06T13:42:13.053Z,2.37
2019-03-06T13:44:43.376Z,1.57
2019-03-06T13:47:13.820Z,2.37
2019-03-06T13:49:44.062Z,2.07
2019-03-06T13:52:14.549Z,0.97
2019-03-06T13:54:44.891Z,2.50
2019-03-06T13:57:15.448Z,2.90
2019-03-06T13:59:45.666Z,1.70
2019-03-06T14:02:16.037Z,3.67
2019-03-06T14:04:46.377Z,2.70
2019-03-06T14:07:16.761Z,1.13
2019-03-06T14:09:47.041Z,3.47
2019-03-06T14:12:17.344Z,4.00
2019-03-06T14:14:47.640Z,6.97
2019-03-06T14:17:17.981Z,1.47
2019-03-06T14:19:48.417Z,1.53
2019-03-06T14:22:19.030Z,1.87
2019-03-06T14:24:49.293Z,2.00
2019-03-06T14:27:19.589Z,2.27
2019-03-06T14:29:51.145Z,2.20
2019-03-06T14:32:21.660Z,1.57
2019-03-06T14:34:52.011Z,4.23
2019-03-06T14:37:22.361Z,0.90
2019-03-06T14:39:52.676Z,1.10
2019-03-06T14:42:26.221Z,1.40
2019-03-06T14:44:56.590Z,2.13
2019-03-06T14:47:27.012Z,2.40
2019-03-06T14:49:57.291Z,2.00
2019-03-06T14:52:27.652Z,3.33
2019-03-06T14:54:57.973Z,3.03
2019-03-06T14:57:28.338Z,2.83
2019-03-06T14:59:58.700Z,2.50
2019-03-06T15:02:31.792Z,5.57
2019-03-06T15:05:02.077Z,3.23
2019-03-06T15:07:32.516Z,2.47
2019-03-06T15:10:02.973Z,2.00
2019-03-06T15:12:33.349Z,4.63
2019-03-06T15:15:03.689Z,2.90
2019-03-06T15:17:34.054Z,5.03
2019-03-06T15:20:04.614Z,2.00
2019-03-06T15:22:38.559Z,1.70
2019-03-06T15:25:10.852Z,2.23
2019-03-06T15:27:41.213Z,1.90
2019-03-06T15:30:13.699Z,4.93
2019-03-06T15:32:44.311Z,3.40
2019-03-06T15:35:15.230Z,4.20
2019-03-06T15:37:45.713Z,3.03
2019-03-06T15:40:22.712Z,1.70
2019-03-06T15:42:53.163Z,1.90
2019-03-06T15:45:24.975Z,4.17
2019-03-06T15:47:55.643Z,7.13
2019-03-06T15:50:26.138Z,4.67
2019-03-06T15:52:56.621Z,4.07
2019-03-06T15:55:27.231Z,4.93
2019-03-06T15:57:58.127Z,4.43
2019-03-06T16:00:32.905Z,3.50
2019-03-06T16:03:04.375Z,3.60
2019-03-06T16:05:35.667Z,3.83
2019-03-06T16:08:06.766Z,3.63
2019-03-06T16:10:37.120Z,3.37
2019-03-06T16:13:07.798Z,3.97
2019-03-06T16:15:38.161Z,5.83
2019-03-06T16:18:08.599Z,3.70
2019-03-06T16:20:39.424Z,4.27
2019-03-06T16:23:09.925Z,3.40
2019-03-06T16:25:40.517Z,2.67
2019-03-06T16:28:10.809Z,2.60
2019-03-06T16:30:41.357Z,2.63
2019-03-06T16:33:11.650Z,3.80
2019-03-06T16:35:41.980Z,4.00
2019-03-06T16:38:12.359Z,5.77
2019-03-06T16:40:42.583Z,3.43
2019-03-06T16:43:12.863Z,4.07
2019-03-06T16:45:43.158Z,2.87
2019-03-06T16:48:13.526Z,3.67
2019-03-06T16:50:43.873Z,2.13
2019-03-06T16:53:14.496Z,3.80
2019-03-06T16:55:44.742Z,6.50
2019-03-06T16:58:15.069Z,3.57
2019-03-06T17:00:45.377Z,2.83
2019-03-06T17:03:15.634Z,6.27
2019-03-06T17:05:46.038Z,8.10
2019-03-06T17:08:16.345Z,4.77
2019-03-06T17:10:46.622Z,4.43
2019-03-06T17:13:17.040Z,15.07
2019-03-06T17:15:47.357Z,11.60
2019-03-06T17:18:17.959Z,6.83
2019-03-06T17:20:48.267Z,6.67
2019-03-06T17:23:18.556Z,7.67
2019-03-06T17:25:48.954Z,6.17
2019-03-06T17:28:19.381Z,5.13
2019-03-06T17:30:49.973Z,9.83
2019-03-06T17:33:20.643Z,7.37
2019-03-06T17:35:50.974Z,7.83
2019-03-06T17:38:21.366Z,11.30
2019-03-06T17:40:51.716Z,18.83
2019-03-06T17:43:22.074Z,13.57
2019-03-06T17:45:52.358Z,7.47
2019-03-06T17:48:22.770Z,5.60
2019-03-06T17:50:56.102Z,3.63
2019-03-06T17:53:27.414Z,6.23
2019-03-06T17:55:57.865Z,5.90
2019-03-06T17:58:28.266Z,4.27
2019-03-06T18:01:05.225Z,6.60
2019-03-06T18:03:57.304Z,6.83
2019-03-06T18:06:27.557Z,12.43
2019-03-06T18:08:57.986Z,9.37
2019-03-06T18:11:28.431Z,7.37
2019-03-06T18:13:58.841Z,4.67
2019-03-06T18:16:29.218Z,4.17
2019-03-06T18:19:00.395Z,4.60
2019-03-06T18:21:30.738Z,7.57
2019-03-06T18:24:01.177Z,4.77
2019-03-06T18:26:32.065Z,4.33
2019-03-06T18:29:02.372Z,5.73
2019-03-06T18:31:32.964Z,5.27
2019-03-06T18:34:03.271Z,4.50
2019-03-06T18:36:33.784Z,4.30
2019-03-06T18:39:07.769Z,4.03
2019-03-06T18:41:38.042Z,5.13
2019-03-06T18:44:08.489Z,8.40
2019-03-06T18:46:38.774Z,6.33
2019-03-06T18:49:09.090Z,9.20
2019-03-06T18:51:39.399Z,3.97
2019-03-06T18:54:09.815Z,8.77
2019-03-06T18:56:40.105Z,6.13
2019-03-06T18:59:10.635Z,7.47
2019-03-06T19:01:41.060Z,8.07
2019-03-06T19:04:11.442Z,6.43
2019-03-06T19:06:41.687Z,6.60
2019-03-06T19:09:12.161Z,10.37
2019-03-06T19:11:42.518Z,7.97
2019-03-06T19:14:12.915Z,3.20
2019-03-06T19:16:43.577Z,6.50
2019-03-06T19:19:13.941Z,6.73
2019-03-06T19:21:44.392Z,10.43
2019-03-06T19:24:14.709Z,7.37
2019-03-06T19:26:44.975Z,8.57
2019-03-06T19:29:15.313Z,9.23
2019-03-06T19:31:45.653Z,8.37
2019-03-06T19:34:16.014Z,5.80
2019-03-06T19:36:46.240Z,7.50
2019-03-06T19:39:16.704Z,8.00
2019-03-06T19:41:46.959Z,7.57
2019-03-06T19:44:17.422Z,7.13
2019-03-06T19:46:47.875Z,9.23
2019-03-06T19:49:18.271Z,7.03
2019-03-06T19:51:51.484Z,7.30
2019-03-06T19:54:20.631Z,5.33
2019-03-06T19:56:50.988Z,8.90
2019-03-06T19:59:21.283Z,5.13
2019-03-06T20:01:52.534Z,8.07
2019-03-06T20:04:23.141Z,8.30
2019-03-06T20:06:53.735Z,11.97
2019-03-06T20:09:25.539Z,8.50
2019-03-06T20:11:55.862Z,6.77
2019-03-06T20:14:26.242Z,6.37
2019-03-06T20:16:56.554Z,4.53
2019-03-06T20:19:26.929Z,7.13
2019-03-06T20:21:57.187Z,10.63
2019-03-06T20:24:27.508Z,6.77
2019-03-06T20:26:57.911Z,6.10
2019-03-06T20:29:28.283Z,6.60
2019-03-06T20:32:00.341Z,5.47
2019-03-06T20:34:30.680Z,9.33
2019-03-06T20:37:01.079Z,5.10
2019-03-06T20:39:31.674Z,5.93
2019-03-06T20:42:02.002Z,6.70
2019-03-06T20:44:32.280Z,7.37
2019-03-06T20:47:02.636Z,8.43
2019-03-06T20:49:33.221Z,8.23
2019-03-06T20:52:03.698Z,4.83
2019-03-06T20:54:34.074Z,11.83
2019-03-06T20:57:04.469Z,8.50
2019-03-06T20:59:34.822Z,8.47
2019-03-06T21:02:05.218Z,10.10
2019-03-06T21:04:35.596Z,6.23
2019-03-06T21:07:06.042Z,7.13
2019-03-06T21:09:36.437Z,7.30
2019-03-06T21:12:06.831Z,8.33
2019-03-06T21:14:37.804Z,10.83
2019-03-06T21:17:08.231Z,5.33
2019-03-06T21:19:38.609Z,7.33
2019-03-06T21:22:09.077Z,6.87
2019-03-06T21:24:39.479Z,8.13
2019-03-06T21:27:09.772Z,9.03
2019-03-06T21:29:40.675Z,5.23
2019-03-06T21:32:11.022Z,7.47
2019-03-06T21:34:43.115Z,6.07
2019-03-06T21:37:13.502Z,7.07
2019-03-06T21:39:43.814Z,7.17
2019-03-06T21:42:14.168Z,6.07
2019-03-06T21:44:44.432Z,7.67
2019-03-06T21:47:14.826Z,7.03
2019-03-06T21:49:45.285Z,5.43
2019-03-06T21:52:15.689Z,5.93
2019-03-06T21:54:46.083Z,6.33
2019-03-06T21:57:16.432Z,5.73
2019-03-06T21:59:46.687Z,7.13
2019-03-06T22:02:16.968Z,5.33
2019-03-06T22:04:47.213Z,9.03
2019-03-06T22:07:17.510Z,5.27
2019-03-06T22:09:47.680Z,7.93
2019-03-06T22:12:17.944Z,7.80
2019-03-06T22:14:48.242Z,7.90
2019-03-06T22:17:18.863Z,6.00
2019-03-06T22:19:49.135Z,5.10
2019-03-06T22:22:19.453Z,8.40
2019-03-06T22:24:49.792Z,7.90
2019-03-06T22:27:20.127Z,12.43
2019-03-06T22:29:50.516Z,5.13
2019-03-06T22:32:20.740Z,6.23
2019-03-06T22:34:52.114Z,7.90
2019-03-06T22:37:22.432Z,6.07
2019-03-06T22:39:52.703Z,8.17
2019-03-06T22:42:23.035Z,7.43
2019-03-06T22:44:53.506Z,8.23
2019-03-06T22:47:23.822Z,6.57
2019-03-06T22:49:54.084Z,6.95
2019-03-06T22:52:24.333Z,6.40
2019-03-06T22:54:54.633Z,8.47
2019-03-06T22:57:25.111Z,5.47
2019-03-06T22:59:55.452Z,6.50
2019-03-06T23:02:25.853Z,5.47
2019-03-06T23:04:56.199Z,6.67
2019-03-06T23:07:26.405Z,5.60
2019-03-06T23:09:56.605Z,6.07
2019-03-06T23:12:26.924Z,5.17
2019-03-06T23:14:57.234Z,5.03
2019-03-06T23:17:27.523Z,7.47
2019-03-06T23:19:57.908Z,6.57
2019-03-06T23:22:28.188Z,5.57
2019-03-06T23:24:58.482Z,7.37
2019-03-06T23:27:28.712Z,6.13
2019-03-06T23:29:58.914Z,7.47
2019-03-06T23:32:29.216Z,3.70
2019-03-06T23:34:59.508Z,7.33
2019-03-06T23:37:29.831Z,5.27
2019-03-06T23:40:00.267Z,6.60
2019-03-06T23:42:30.630Z,7.97
2019-03-06T23:45:00.895Z,7.90
2019-03-06T23:47:31.097Z,9.03
2019-03-06T23:50:01.501Z,10.10
2019-03-06T23:52:36.448Z,7.40
2019-03-06T23:55:06.702Z,6.87
2019-03-06T23:57:36.916Z,6.77
